sensor_id;sensor_type;location;lat;lon;timestamp;pressure;altitude;pressure_sealevel;temperature;humidity
78894;BME280;68282;42.698;23.350;2024-02-21T00:02:10;96119.56;;;7.52;63.25
78894;BME280;68282;42.698;23.350;2024-02-21T00:04:37;96147.59;;;7.72;62.38
78894;BME280;68282;42.698;23.350;2024-02-21T00:07:05;96139.97;;;7.54;63.34
78894;BME280;68282;42.698;23.350;2024-02-21T00:09:30;96125.50;;;7.34;63.32
78894;BME280;68282;42.698;23.350;2024-02-21T00:11:56;96123.22;;;7.37;63.25
78894;BME280;68282;42.698;23.350;2024-02-21T00:14:22;96141.94;;;7.32;63.56
78894;BME280;68282;42.698;23.350;2024-02-21T00:16:48;96116.13;;;7.36;63.36
78894;BME280;68282;42.698;23.350;2024-02-21T00:19:13;96132.22;;;7.45;63.54
78894;BME280;68282;42.698;23.350;2024-02-21T00:21:40;96119.75;;;7.50;63.24
78894;BME280;68282;42.698;23.350;2024-02-21T00:24:07;96125.22;;;6.93;64.45
78894;BME280;68282;42.698;23.350;2024-02-21T00:26:32;96115.88;;;6.96;65.15
78894;BME280;68282;42.698;23.350;2024-02-21T00:28:58;96126.13;;;7.36;64.06
78894;BME280;68282;42.698;23.350;2024-02-21T00:31:23;96140.38;;;7.16;64.35
78894;BME280;68282;42.698;23.350;2024-02-21T00:33:49;96110.72;;;6.79;65.10
78894;BME280;68282;42.698;23.350;2024-02-21T00:36:16;96121.91;;;6.70;65.76
78894;BME280;68282;42.698;23.350;2024-02-21T00:38:41;96128.16;;;6.99;65.32
78894;BME280;68282;42.698;23.350;2024-02-21T00:41:07;96127.38;;;6.76;65.26
78894;BME280;68282;42.698;23.350;2024-02-21T00:46:23;96115.56;;;6.62;65.87
78894;BME280;68282;42.698;23.350;2024-02-21T00:48:49;96118.25;;;6.84;65.63
78894;BME280;68282;42.698;23.350;2024-02-21T00:51:23;96115.47;;;6.71;66.51
78894;BME280;68282;42.698;23.350;2024-02-21T00:53:49;96123.88;;;7.11;65.40
78894;BME280;68282;42.698;23.350;2024-02-21T00:56:14;96120.91;;;7.06;64.51
78894;BME280;68282;42.698;23.350;2024-02-21T00:58:41;96114.25;;;7.02;65.17
78894;BME280;68282;42.698;23.350;2024-02-21T01:01:07;96108.13;;;7.21;64.58
78894;BME280;68282;42.698;23.350;2024-02-21T01:03:32;96111.41;;;7.45;64.24
78894;BME280;68282;42.698;23.350;2024-02-21T01:05:58;96101.84;;;7.14;64.12
78894;BME280;68282;42.698;23.350;2024-02-21T01:08:23;96102.16;;;7.33;63.33
78894;BME280;68282;42.698;23.350;2024-02-21T01:10:49;96102.94;;;7.55;62.95
78894;BME280;68282;42.698;23.350;2024-02-21T01:13:15;96108.66;;;7.38;63.56
78894;BME280;68282;42.698;23.350;2024-02-21T01:15:40;96101.63;;;7.44;63.45
78894;BME280;68282;42.698;23.350;2024-02-21T01:18:06;96100.38;;;7.47;63.29
78894;BME280;68282;42.698;23.350;2024-02-21T01:20:31;96096.88;;;7.18;64.25
78894;BME280;68282;42.698;23.350;2024-02-21T01:22:57;96079.31;;;7.07;63.97
78894;BME280;68282;42.698;23.350;2024-02-21T01:25:23;96078.94;;;7.10;64.17
78894;BME280;68282;42.698;23.350;2024-02-21T01:27:48;96096.25;;;7.16;64.71
78894;BME280;68282;42.698;23.350;2024-02-21T01:30:14;96086.19;;;7.45;63.63
78894;BME280;68282;42.698;23.350;2024-02-21T01:32:39;96084.22;;;7.60;63.01
78894;BME280;68282;42.698;23.350;2024-02-21T01:35:07;96086.69;;;7.62;62.71
78894;BME280;68282;42.698;23.350;2024-02-21T01:37:33;96081.63;;;7.45;62.84
78894;BME280;68282;42.698;23.350;2024-02-21T01:39:58;96077.53;;;7.63;62.74
78894;BME280;68282;42.698;23.350;2024-02-21T01:42:24;96063.84;;;7.71;62.10
78894;BME280;68282;42.698;23.350;2024-02-21T01:44:50;96060.75;;;7.81;61.66
78894;BME280;68282;42.698;23.350;2024-02-21T01:47:16;96070.50;;;7.68;62.53
78894;BME280;68282;42.698;23.350;2024-02-21T01:49:41;96073.03;;;7.77;62.18
78894;BME280;68282;42.698;23.350;2024-02-21T01:52:08;96069.13;;;7.93;61.50
78894;BME280;68282;42.698;23.350;2024-02-21T01:54:34;96065.03;;;7.62;61.64
78894;BME280;68282;42.698;23.350;2024-02-21T01:57:00;96055.84;;;7.56;62.13
78894;BME280;68282;42.698;23.350;2024-02-21T01:59:26;96073.81;;;7.64;61.89
78894;BME280;68282;42.698;23.350;2024-02-21T02:01:53;96064.78;;;7.50;61.82
78894;BME280;68282;42.698;23.350;2024-02-21T02:04:20;96062.22;;;7.83;61.22
78894;BME280;68282;42.698;23.350;2024-02-21T02:06:46;96065.16;;;7.88;60.99
78894;BME280;68282;42.698;23.350;2024-02-21T02:09:11;96059.84;;;7.60;61.20
78894;BME280;68282;42.698;23.350;2024-02-21T02:11:37;96069.38;;;7.49;61.74
78894;BME280;68282;42.698;23.350;2024-02-21T02:14:03;96073.13;;;7.48;62.23
78894;BME280;68282;42.698;23.350;2024-02-21T02:16:28;96073.72;;;7.50;61.50
78894;BME280;68282;42.698;23.350;2024-02-21T02:18:54;96066.81;;;7.06;63.58
78894;BME280;68282;42.698;23.350;2024-02-21T02:21:36;96064.69;;;6.94;63.56
78894;BME280;68282;42.698;23.350;2024-02-21T02:24:03;96051.91;;;7.17;62.67
78894;BME280;68282;42.698;23.350;2024-02-21T02:26:30;96051.41;;;7.35;62.56
78894;BME280;68282;42.698;23.350;2024-02-21T02:28:55;96050.91;;;7.60;61.77
78894;BME280;68282;42.698;23.350;2024-02-21T02:31:21;96047.19;;;7.74;61.01
78894;BME280;68282;42.698;23.350;2024-02-21T02:33:46;96045.78;;;7.85;60.75
78894;BME280;68282;42.698;23.350;2024-02-21T02:36:13;96040.16;;;7.86;61.01
78894;BME280;68282;42.698;23.350;2024-02-21T02:38:38;96051.38;;;7.83;60.79
78894;BME280;68282;42.698;23.350;2024-02-21T02:41:04;96039.47;;;7.64;61.72
78894;BME280;68282;42.698;23.350;2024-02-21T02:43:29;96038.56;;;7.57;62.24
78894;BME280;68282;42.698;23.350;2024-02-21T02:45:55;96042.25;;;7.91;61.32
78894;BME280;68282;42.698;23.350;2024-02-21T02:48:21;96039.78;;;8.03;60.74
78894;BME280;68282;42.698;23.350;2024-02-21T02:50:46;96041.66;;;8.09;60.66
78894;BME280;68282;42.698;23.350;2024-02-21T02:53:12;96051.50;;;8.24;59.90
78894;BME280;68282;42.698;23.350;2024-02-21T02:55:37;96052.13;;;8.32;59.48
78894;BME280;68282;42.698;23.350;2024-02-21T02:58:03;96050.66;;;8.36;59.93
78894;BME280;68282;42.698;23.350;2024-02-21T03:00:29;96051.72;;;8.42;58.99
78894;BME280;68282;42.698;23.350;2024-02-21T03:02:54;96054.22;;;8.44;59.39
78894;BME280;68282;42.698;23.350;2024-02-21T03:05:20;96060.59;;;8.02;60.41
78894;BME280;68282;42.698;23.350;2024-02-21T03:07:47;96061.28;;;8.11;60.15
78894;BME280;68282;42.698;23.350;2024-02-21T03:10:15;96044.41;;;8.23;59.61
78894;BME280;68282;42.698;23.350;2024-02-21T03:12:45;96058.53;;;8.04;60.34
78894;BME280;68282;42.698;23.350;2024-02-21T03:15:12;96065.25;;;8.29;59.89
78894;BME280;68282;42.698;23.350;2024-02-21T03:17:38;96057.97;;;8.23;59.45
78894;BME280;68282;42.698;23.350;2024-02-21T03:20:07;96065.88;;;8.31;59.51
78894;BME280;68282;42.698;23.350;2024-02-21T03:22:39;96067.75;;;8.17;60.44
78894;BME280;68282;42.698;23.350;2024-02-21T03:25:05;96068.38;;;8.19;59.79
78894;BME280;68282;42.698;23.350;2024-02-21T03:27:31;96073.97;;;8.17;59.71
78894;BME280;68282;42.698;23.350;2024-02-21T03:29:57;96069.00;;;8.14;60.00
78894;BME280;68282;42.698;23.350;2024-02-21T03:32:22;96069.59;;;8.10;60.11
78894;BME280;68282;42.698;23.350;2024-02-21T03:34:48;96074.19;;;8.09;60.02
78894;BME280;68282;42.698;23.350;2024-02-21T03:37:14;96075.22;;;8.15;60.21
78894;BME280;68282;42.698;23.350;2024-02-21T03:39:40;96075.03;;;8.23;59.44
78894;BME280;68282;42.698;23.350;2024-02-21T03:42:05;96079.53;;;7.96;60.24
78894;BME280;68282;42.698;23.350;2024-02-21T03:44:31;96070.81;;;8.00;60.23
78894;BME280;68282;42.698;23.350;2024-02-21T03:46:59;96080.84;;;7.58;61.65
78894;BME280;68282;42.698;23.350;2024-02-21T03:49:25;96096.34;;;7.71;61.28
78894;BME280;68282;42.698;23.350;2024-02-21T03:51:51;96083.09;;;7.89;61.14
78894;BME280;68282;42.698;23.350;2024-02-21T03:54:18;96092.91;;;7.49;61.97
78894;BME280;68282;42.698;23.350;2024-02-21T03:56:43;96076.28;;;7.58;61.56
78894;BME280;68282;42.698;23.350;2024-02-21T03:59:09;96083.03;;;7.34;62.09
78894;BME280;68282;42.698;23.350;2024-02-21T04:01:35;96071.66;;;7.10;63.25
78894;BME280;68282;42.698;23.350;2024-02-21T04:04:01;96087.78;;;7.61;62.00
78894;BME280;68282;42.698;23.350;2024-02-21T04:06:27;96084.59;;;7.57;62.13
78894;BME280;68282;42.698;23.350;2024-02-21T04:08:52;96069.31;;;7.84;61.13
78894;BME280;68282;42.698;23.350;2024-02-21T04:11:18;96071.41;;;7.96;60.36
78894;BME280;68282;42.698;23.350;2024-02-21T04:13:44;96078.97;;;8.14;59.81
78894;BME280;68282;42.698;23.350;2024-02-21T04:16:10;96064.63;;;8.13;59.86
78894;BME280;68282;42.698;23.350;2024-02-21T04:18:36;96064.25;;;7.68;60.87
78894;BME280;68282;42.698;23.350;2024-02-21T04:21:01;96078.00;;;7.73;60.05
78894;BME280;68282;42.698;23.350;2024-02-21T04:23:27;96078.00;;;7.73;60.65
78894;BME280;68282;42.698;23.350;2024-02-21T04:25:52;96084.69;;;7.77;60.82
78894;BME280;68282;42.698;23.350;2024-02-21T04:28:18;96073.03;;;7.83;60.66
78894;BME280;68282;42.698;23.350;2024-02-21T04:30:43;96077.91;;;8.01;59.69
78894;BME280;68282;42.698;23.350;2024-02-21T04:33:09;96073.59;;;8.20;59.78
78894;BME280;68282;42.698;23.350;2024-02-21T04:35:36;96069.75;;;7.95;59.93
78894;BME280;68282;42.698;23.350;2024-02-21T04:38:02;96068.34;;;8.12;59.27
78894;BME280;68282;42.698;23.350;2024-02-21T04:40:27;96071.88;;;8.06;59.50
78894;BME280;68282;42.698;23.350;2024-02-21T04:42:53;96069.41;;;8.11;59.07
78894;BME280;68282;42.698;23.350;2024-02-21T04:45:19;96078.19;;;8.27;59.16
78894;BME280;68282;42.698;23.350;2024-02-21T04:47:46;96080.91;;;8.33;58.75
78894;BME280;68282;42.698;23.350;2024-02-21T04:50:11;96065.59;;;7.92;59.52
78894;BME280;68282;42.698;23.350;2024-02-21T04:52:38;96083.88;;;7.77;60.22
78894;BME280;68282;42.698;23.350;2024-02-21T04:55:03;96084.06;;;7.75;60.09
78894;BME280;68282;42.698;23.350;2024-02-21T04:57:29;96074.34;;;7.46;61.07
78894;BME280;68282;42.698;23.350;2024-02-21T04:59:55;96081.91;;;7.57;60.70
78894;BME280;68282;42.698;23.350;2024-02-21T05:02:20;96072.75;;;7.58;61.12
78894;BME280;68282;42.698;23.350;2024-02-21T05:04:47;96087.25;;;7.92;60.38
78894;BME280;68282;42.698;23.350;2024-02-21T05:07:13;96086.84;;;7.95;59.84
78894;BME280;68282;42.698;23.350;2024-02-21T05:09:42;96079.53;;;7.96;59.35
78894;BME280;68282;42.698;23.350;2024-02-21T05:12:08;96089.00;;;8.13;59.48
78894;BME280;68282;42.698;23.350;2024-02-21T05:14:33;96079.84;;;8.14;59.57
78894;BME280;68282;42.698;23.350;2024-02-21T05:16:59;96084.38;;;8.07;59.73
78894;BME280;68282;42.698;23.350;2024-02-21T05:19:24;96093.88;;;7.83;60.19
78894;BME280;68282;42.698;23.350;2024-02-21T05:21:51;96099.66;;;7.73;60.92
78894;BME280;68282;42.698;23.350;2024-02-21T05:24:17;96095.19;;;7.94;60.24
78894;BME280;68282;42.698;23.350;2024-02-21T05:26:42;96098.09;;;7.92;60.62
78894;BME280;68282;42.698;23.350;2024-02-21T05:29:08;96096.69;;;8.03;60.29
78894;BME280;68282;42.698;23.350;2024-02-21T05:34:18;96097.91;;;8.00;59.81
78894;BME280;68282;42.698;23.350;2024-02-21T05:36:44;96092.28;;;8.02;60.00
78894;BME280;68282;42.698;23.350;2024-02-21T05:39:10;96103.19;;;8.15;59.63
78894;BME280;68282;42.698;23.350;2024-02-21T05:41:36;96101.00;;;7.91;60.40
78894;BME280;68282;42.698;23.350;2024-02-21T05:44:02;96092.28;;;8.02;60.11
78894;BME280;68282;42.698;23.350;2024-02-21T05:46:28;96089.78;;;8.07;59.92
78894;BME280;68282;42.698;23.350;2024-02-21T05:48:54;96098.81;;;8.14;60.53
78894;BME280;68282;42.698;23.350;2024-02-21T05:51:19;96102.75;;;8.18;59.45
78894;BME280;68282;42.698;23.350;2024-02-21T05:53:45;96102.94;;;8.10;59.58
78894;BME280;68282;42.698;23.350;2024-02-21T05:56:11;96105.69;;;8.17;59.50
78894;BME280;68282;42.698;23.350;2024-02-21T05:58:38;96111.53;;;8.20;59.74
78894;BME280;68282;42.698;23.350;2024-02-21T06:01:04;96111.13;;;8.24;59.51
78894;BME280;68282;42.698;23.350;2024-02-21T06:03:32;96108.41;;;8.24;59.28
78894;BME280;68282;42.698;23.350;2024-02-21T06:05:58;96115.72;;;8.36;58.83
78894;BME280;68282;42.698;23.350;2024-02-21T06:08:24;96127.00;;;8.40;58.79
78894;BME280;68282;42.698;23.350;2024-02-21T06:10:50;96126.56;;;8.36;59.12
78894;BME280;68282;42.698;23.350;2024-02-21T06:13:23;96118.84;;;8.33;58.89
78894;BME280;68282;42.698;23.350;2024-02-21T06:15:49;96130.97;;;8.44;59.24
78894;BME280;68282;42.698;23.350;2024-02-21T06:18:16;96133.25;;;8.34;58.16
78894;BME280;68282;42.698;23.350;2024-02-21T06:20:42;96130.34;;;8.42;59.49
78894;BME280;68282;42.698;23.350;2024-02-21T06:23:08;96127.63;;;8.42;58.61
78894;BME280;68282;42.698;23.350;2024-02-21T06:25:34;96124.84;;;8.22;59.32
78894;BME280;68282;42.698;23.350;2024-02-21T06:27:59;96134.44;;;8.18;58.96
78894;BME280;68282;42.698;23.350;2024-02-21T06:30:25;96125.72;;;8.23;58.69
78894;BME280;68282;42.698;23.350;2024-02-21T06:32:51;96139.50;;;8.34;59.06
78894;BME280;68282;42.698;23.350;2024-02-21T06:35:16;96124.06;;;8.35;58.22
78894;BME280;68282;42.698;23.350;2024-02-21T06:37:43;96140.41;;;8.48;58.30
78894;BME280;68282;42.698;23.350;2024-02-21T06:40:15;96136.38;;;8.38;57.96
78894;BME280;68282;42.698;23.350;2024-02-21T06:42:41;96149.38;;;8.49;57.86
78894;BME280;68282;42.698;23.350;2024-02-21T06:45:06;96144.06;;;8.27;58.26
78894;BME280;68282;42.698;23.350;2024-02-21T06:47:32;96146.97;;;8.19;58.60
78894;BME280;68282;42.698;23.350;2024-02-21T06:49:58;96165.69;;;8.14;58.96
78894;BME280;68282;42.698;23.350;2024-02-21T06:52:23;96158.44;;;8.21;59.11
78894;BME280;68282;42.698;23.350;2024-02-21T06:54:50;96169.50;;;8.26;59.19
78894;BME280;68282;42.698;23.350;2024-02-21T06:57:15;96160.56;;;8.39;59.30
78894;BME280;68282;42.698;23.350;2024-02-21T06:59:41;96156.56;;;8.28;59.09
78894;BME280;68282;42.698;23.350;2024-02-21T07:02:08;96158.91;;;8.45;58.80
78894;BME280;68282;42.698;23.350;2024-02-21T07:04:34;96155.81;;;8.48;58.51
78894;BME280;68282;42.698;23.350;2024-02-21T07:07:00;96159.72;;;8.39;58.86
78894;BME280;68282;42.698;23.350;2024-02-21T07:09:26;96153.28;;;8.40;59.18
78894;BME280;68282;42.698;23.350;2024-02-21T07:11:54;96160.44;;;8.61;58.35
78894;BME280;68282;42.698;23.350;2024-02-21T07:14:19;96166.28;;;8.51;58.59
78894;BME280;68282;42.698;23.350;2024-02-21T07:16:46;96152.09;;;8.56;57.91
78894;BME280;68282;42.698;23.350;2024-02-21T07:19:11;96161.47;;;8.53;58.49
78894;BME280;68282;42.698;23.350;2024-02-21T07:21:37;96153.56;;;8.65;57.61
78894;BME280;68282;42.698;23.350;2024-02-21T07:24:07;96166.47;;;8.56;57.32
78894;BME280;68282;42.698;23.350;2024-02-21T07:29:57;96162.53;;;8.59;58.39
78894;BME280;68282;42.698;23.350;2024-02-21T07:32:23;96169.16;;;8.49;58.23
78894;BME280;68282;42.698;23.350;2024-02-21T07:34:49;96166.22;;;8.44;58.05
78894;BME280;68282;42.698;23.350;2024-02-21T07:37:16;96176.81;;;8.26;58.04
78894;BME280;68282;42.698;23.350;2024-02-21T07:39:41;96172.81;;;8.22;58.99
78894;BME280;68282;42.698;23.350;2024-02-21T07:42:07;96163.25;;;8.39;59.08
78894;BME280;68282;42.698;23.350;2024-02-21T07:44:32;96161.44;;;8.46;58.18
78894;BME280;68282;42.698;23.350;2024-02-21T07:46:59;96168.97;;;8.51;58.41
78894;BME280;68282;42.698;23.350;2024-02-21T07:49:25;96175.59;;;8.42;58.05
78894;BME280;68282;42.698;23.350;2024-02-21T07:51:52;96163.75;;;8.49;58.87
78894;BME280;68282;42.698;23.350;2024-02-21T07:54:18;96154.84;;;8.69;58.03
78894;BME280;68282;42.698;23.350;2024-02-21T07:56:43;96147.94;;;8.53;57.67
78894;BME280;68282;42.698;23.350;2024-02-21T07:59:09;96167.09;;;8.51;58.55
78894;BME280;68282;42.698;23.350;2024-02-21T08:01:34;96147.09;;;8.59;58.59
78894;BME280;68282;42.698;23.350;2024-02-21T08:04:01;96147.84;;;8.33;58.52
78894;BME280;68282;42.698;23.350;2024-02-21T08:06:30;96152.09;;;8.56;58.91
78894;BME280;68282;42.698;23.350;2024-02-21T08:09:07;96157.34;;;8.71;58.58
78894;BME280;68282;42.698;23.350;2024-02-21T08:11:33;96156.94;;;8.94;58.19
78894;BME280;68282;42.698;23.350;2024-02-21T08:14:08;96170.09;;;8.97;57.72
78894;BME280;68282;42.698;23.350;2024-02-21T08:16:34;96160.88;;;8.58;58.10
78894;BME280;68282;42.698;23.350;2024-02-21T08:19:00;96151.69;;;8.65;58.20
78894;BME280;68282;42.698;23.350;2024-02-21T08:21:28;96155.25;;;8.73;57.71
78894;BME280;68282;42.698;23.350;2024-02-21T08:23:54;96163.41;;;8.79;57.50
78894;BME280;68282;42.698;23.350;2024-02-21T08:26:20;96146.91;;;8.74;58.16
78894;BME280;68282;42.698;23.350;2024-02-21T08:28:49;96162.16;;;9.16;57.53
78894;BME280;68282;42.698;23.350;2024-02-21T08:31:21;96158.59;;;9.02;57.68
78894;BME280;68282;42.698;23.350;2024-02-21T08:33:49;96147.97;;;9.13;57.18
78894;BME280;68282;42.698;23.350;2024-02-21T08:36:18;96152.97;;;9.17;56.51
78894;BME280;68282;42.698;23.350;2024-02-21T08:38:45;96153.63;;;8.92;56.76
78894;BME280;68282;42.698;23.350;2024-02-21T08:41:12;96152.97;;;9.10;56.14
78894;BME280;68282;42.698;23.350;2024-02-21T08:43:38;96153.41;;;9.07;56.71
78894;BME280;68282;42.698;23.350;2024-02-21T08:46:04;96152.97;;;9.30;56.37
78894;BME280;68282;42.698;23.350;2024-02-21T08:48:30;96142.31;;;8.95;55.68
78894;BME280;68282;42.698;23.350;2024-02-21T08:50:55;96143.78;;;9.04;55.30
78894;BME280;68282;42.698;23.350;2024-02-21T08:53:22;96145.47;;;8.78;55.99
78894;BME280;68282;42.698;23.350;2024-02-21T08:55:47;96151.09;;;8.90;56.06
78894;BME280;68282;42.698;23.350;2024-02-21T08:58:13;96138.75;;;8.74;55.90
78894;BME280;68282;42.698;23.350;2024-02-21T09:00:40;96151.06;;;8.63;56.06
78894;BME280;68282;42.698;23.350;2024-02-21T09:03:05;96161.28;;;8.68;56.78
78894;BME280;68282;42.698;23.350;2024-02-21T09:05:31;96150.47;;;8.75;56.82
78894;BME280;68282;42.698;23.350;2024-02-21T09:07:56;96132.72;;;8.86;56.96
78894;BME280;68282;42.698;23.350;2024-02-21T09:10:27;96144.84;;;9.03;55.82
78894;BME280;68282;42.698;23.350;2024-02-21T09:12:52;96145.88;;;9.29;55.40
78894;BME280;68282;42.698;23.350;2024-02-21T09:15:18;96151.50;;;9.34;55.37
78894;BME280;68282;42.698;23.350;2024-02-21T09:17:43;96151.50;;;9.14;54.69
78894;BME280;68282;42.698;23.350;2024-02-21T09:20:09;96144.41;;;9.00;54.80
78894;BME280;68282;42.698;23.350;2024-02-21T09:22:37;96153.59;;;9.19;54.17
78894;BME280;68282;42.698;23.350;2024-02-21T09:25:05;96135.66;;;9.18;54.05
78894;BME280;68282;42.698;23.350;2024-02-21T09:27:31;96144.00;;;9.09;54.37
78894;BME280;68282;42.698;23.350;2024-02-21T09:29:58;96140.88;;;8.86;55.53
78894;BME280;68282;42.698;23.350;2024-02-21T09:32:23;96158.22;;;9.11;55.19
78894;BME280;68282;42.698;23.350;2024-02-21T09:34:54;96159.47;;;9.02;55.11
78894;BME280;68282;42.698;23.350;2024-02-21T09:37:20;96157.34;;;9.38;54.45
78894;BME280;68282;42.698;23.350;2024-02-21T09:39:46;96149.63;;;9.35;53.72
78894;BME280;68282;42.698;23.350;2024-02-21T09:42:14;96142.94;;;9.37;53.96
78894;BME280;68282;42.698;23.350;2024-02-21T09:44:44;96148.97;;;9.46;53.73
78894;BME280;68282;42.698;23.350;2024-02-21T09:47:24;96144.41;;;9.47;53.81
78894;BME280;68282;42.698;23.350;2024-02-21T09:49:59;96137.72;;;9.22;54.13
78894;BME280;68282;42.698;23.350;2024-02-21T09:52:26;96154.63;;;9.58;53.62
78894;BME280;68282;42.698;23.350;2024-02-21T09:54:53;96143.94;;;9.63;53.33
78894;BME280;68282;42.698;23.350;2024-02-21T09:57:20;96156.31;;;9.25;53.57
78894;BME280;68282;42.698;23.350;2024-02-21T09:59:45;96138.75;;;9.48;53.20
78894;BME280;68282;42.698;23.350;2024-02-21T10:02:11;96128.94;;;9.40;52.94
78894;BME280;68282;42.698;23.350;2024-02-21T10:04:39;96132.00;;;9.78;53.00
78894;BME280;68282;42.698;23.350;2024-02-21T10:07:05;96120.75;;;9.61;52.45
78894;BME280;68282;42.698;23.350;2024-02-21T10:09:32;96118.78;;;9.95;51.58
78894;BME280;68282;42.698;23.350;2024-02-21T10:12:11;96128.16;;;9.99;51.26
78894;BME280;68282;42.698;23.350;2024-02-21T10:14:37;96116.94;;;9.82;51.05
78894;BME280;68282;42.698;23.350;2024-02-21T10:17:03;96118.59;;;9.83;50.67
78894;BME280;68282;42.698;23.350;2024-02-21T10:19:34;96118.03;;;9.67;51.31
78894;BME280;68282;42.698;23.350;2024-02-21T10:22:08;96124.78;;;10.03;50.90
78894;BME280;68282;42.698;23.350;2024-02-21T10:24:35;96117.75;;;9.89;50.89
78894;BME280;68282;42.698;23.350;2024-02-21T10:27:04;96115.53;;;10.18;50.91
78894;BME280;68282;42.698;23.350;2024-02-21T10:29:37;96092.72;;;10.26;50.14
78894;BME280;68282;42.698;23.350;2024-02-21T10:32:13;96089.75;;;10.27;49.73
78894;BME280;68282;42.698;23.350;2024-02-21T10:34:40;96088.66;;;10.42;49.13
78894;BME280;68282;42.698;23.350;2024-02-21T10:37:08;96080.56;;;10.28;48.76
78894;BME280;68282;42.698;23.350;2024-02-21T10:39:35;96084.72;;;9.92;50.17
78894;BME280;68282;42.698;23.350;2024-02-21T10:42:02;96073.63;;;10.32;49.80
78894;BME280;68282;42.698;23.350;2024-02-21T10:44:37;96072.63;;;10.65;47.96
78894;BME280;68282;42.698;23.350;2024-02-21T10:47:09;96063.84;;;10.89;48.17
78894;BME280;68282;42.698;23.350;2024-02-21T10:49:38;96058.47;;;11.07;46.79
78894;BME280;68282;42.698;23.350;2024-02-21T10:52:13;96048.34;;;11.14;46.27
78894;BME280;68282;42.698;23.350;2024-02-21T10:57:16;96026.94;;;10.74;46.93
78894;BME280;68282;42.698;23.350;2024-02-21T10:59:44;96015.75;;;10.57;46.53
78894;BME280;68282;42.698;23.350;2024-02-21T11:02:10;96025.69;;;10.70;46.52
78894;BME280;68282;42.698;23.350;2024-02-21T11:04:36;96038.53;;;10.88;44.94
78894;BME280;68282;42.698;23.350;2024-02-21T11:07:03;96014.13;;;11.00;44.26
78894;BME280;68282;42.698;23.350;2024-02-21T11:09:31;96020.19;;;11.02;44.42
78894;BME280;68282;42.698;23.350;2024-02-21T11:11:58;96014.75;;;11.21;44.38
78894;BME280;68282;42.698;23.350;2024-02-21T11:14:27;96009.84;;;11.11;44.16
78894;BME280;68282;42.698;23.350;2024-02-21T11:16:54;96018.63;;;11.50;43.75
78894;BME280;68282;42.698;23.350;2024-02-21T11:19:30;96008.91;;;11.73;41.73
78894;BME280;68282;42.698;23.350;2024-02-21T11:21:56;96023.47;;;11.67;40.84
78894;BME280;68282;42.698;23.350;2024-02-21T11:24:29;96014.84;;;11.51;40.95
78894;BME280;68282;42.698;23.350;2024-02-21T11:27:15;96009.28;;;11.95;41.05
78894;BME280;68282;42.698;23.350;2024-02-21T11:29:44;96009.53;;;12.24;39.87
78894;BME280;68282;42.698;23.350;2024-02-21T11:32:20;96001.97;;;12.07;39.40
78894;BME280;68282;42.698;23.350;2024-02-21T11:34:58;95997.41;;;12.20;38.72
78894;BME280;68282;42.698;23.350;2024-02-21T11:37:26;95998.81;;;12.11;39.03
78894;BME280;68282;42.698;23.350;2024-02-21T11:39:54;96005.28;;;11.79;39.98
78894;BME280;68282;42.698;23.350;2024-02-21T11:42:20;96000.47;;;11.44;41.74
78894;BME280;68282;42.698;23.350;2024-02-21T11:44:47;95995.13;;;10.93;42.35
78894;BME280;68282;42.698;23.350;2024-02-21T11:47:14;95987.56;;;10.95;42.32
78894;BME280;68282;42.698;23.350;2024-02-21T11:49:47;95991.44;;;10.62;43.99
78894;BME280;68282;42.698;23.350;2024-02-21T11:52:14;95993.81;;;10.77;44.05
78894;BME280;68282;42.698;23.350;2024-02-21T11:54:44;95991.38;;;10.69;43.65
78894;BME280;68282;42.698;23.350;2024-02-21T11:57:10;95980.16;;;10.84;44.63
78894;BME280;68282;42.698;23.350;2024-02-21T11:59:40;95976.06;;;10.93;43.31
78894;BME280;68282;42.698;23.350;2024-02-21T12:02:06;95985.66;;;10.77;43.12
78894;BME280;68282;42.698;23.350;2024-02-21T12:04:32;95991.97;;;10.52;43.58
78894;BME280;68282;42.698;23.350;2024-02-21T12:06:58;95973.16;;;10.44;44.08
78894;BME280;68282;42.698;23.350;2024-02-21T12:09:25;95988.38;;;10.77;44.25
78894;BME280;68282;42.698;23.350;2024-02-21T12:12:01;95984.09;;;10.88;44.39
78894;BME280;68282;42.698;23.350;2024-02-21T12:14:32;95985.59;;;10.84;44.15
78894;BME280;68282;42.698;23.350;2024-02-21T12:16:58;95979.53;;;11.07;43.29
78894;BME280;68282;42.698;23.350;2024-02-21T12:19:26;95968.81;;;10.87;43.56
78894;BME280;68282;42.698;23.350;2024-02-21T12:21:51;95962.38;;;10.81;43.76
78894;BME280;68282;42.698;23.350;2024-02-21T12:24:25;95965.34;;;10.80;43.78
78894;BME280;68282;42.698;23.350;2024-02-21T12:26:52;95976.22;;;10.80;43.45
78894;BME280;68282;42.698;23.350;2024-02-21T12:29:22;95968.25;;;10.60;43.68
78894;BME280;68282;42.698;23.350;2024-02-21T12:31:48;95977.00;;;10.87;43.52
78894;BME280;68282;42.698;23.350;2024-02-21T12:34:15;95961.63;;;10.74;44.04
78894;BME280;68282;42.698;23.350;2024-02-21T12:36:44;95966.84;;;10.94;43.57
78894;BME280;68282;42.698;23.350;2024-02-21T12:39:11;95960.09;;;10.78;43.65
78894;BME280;68282;42.698;23.350;2024-02-21T12:41:37;95960.84;;;10.67;44.12
78894;BME280;68282;42.698;23.350;2024-02-21T12:44:07;95943.84;;;10.72;44.06
78894;BME280;68282;42.698;23.350;2024-02-21T12:46:33;95972.25;;;10.57;45.09
78894;BME280;68282;42.698;23.350;2024-02-21T12:48:58;95957.03;;;10.49;46.38
78894;BME280;68282;42.698;23.350;2024-02-21T12:51:25;95960.41;;;10.45;46.81
78894;BME280;68282;42.698;23.350;2024-02-21T12:53:51;95965.53;;;10.28;48.25
78894;BME280;68282;42.698;23.350;2024-02-21T12:56:16;95962.47;;;10.17;49.26
78894;BME280;68282;42.698;23.350;2024-02-21T12:58:42;95970.31;;;10.32;49.51
78894;BME280;68282;42.698;23.350;2024-02-21T13:01:08;95947.78;;;10.25;50.10
78894;BME280;68282;42.698;23.350;2024-02-21T13:03:34;95968.31;;;10.21;50.22
78894;BME280;68282;42.698;23.350;2024-02-21T13:05:59;95952.09;;;10.33;50.13
78894;BME280;68282;42.698;23.350;2024-02-21T13:08:25;95947.56;;;10.27;48.33